createdAt,value
2023-03-17T00:00:20.241Z,2.88
2023-03-17T00:02:48.787Z,3.42
2023-03-17T00:05:16.009Z,2.97
2023-03-17T00:07:43.239Z,2.92
2023-03-17T00:10:25.135Z,3.17
2023-03-17T00:12:55.981Z,3.22
2023-03-17T00:15:24.669Z,3.15
2023-03-17T00:17:51.847Z,3.25
2023-03-17T00:20:29.730Z,3.28
2023-03-17T00:22:58.503Z,3.78
2023-03-17T00:25:28.104Z,3.28
2023-03-17T00:27:55.818Z,3.30
2023-03-17T00:30:23.619Z,3.42
2023-03-17T00:32:52.176Z,3.10
2023-03-17T00:35:21.881Z,3.17
2023-03-17T00:37:49.883Z,3.17
2023-03-17T00:40:21.690Z,2.60
2023-03-17T00:42:49.578Z,2.90
2023-03-17T00:45:17.071Z,3.30
2023-03-17T00:47:45.423Z,3.28
2023-03-17T00:50:17.575Z,3.10
2023-03-17T00:52:45.599Z,2.88
2023-03-17T00:55:13.487Z,2.90
2023-03-17T00:57:41.192Z,2.72
2023-03-17T01:00:17.637Z,2.80
2023-03-17T01:02:45.598Z,2.75
2023-03-17T01:05:13.266Z,2.65
2023-03-17T01:07:40.798Z,2.90
2023-03-17T01:10:14.271Z,3.10
2023-03-17T01:12:41.371Z,3.17
2023-03-17T01:15:08.723Z,2.95
2023-03-17T01:17:35.827Z,2.85
2023-03-17T01:20:02.959Z,3.13
2023-03-17T01:22:30.119Z,2.70
2023-03-17T01:24:57.310Z,2.67
2023-03-17T01:27:25.374Z,2.92
2023-03-17T01:29:55.879Z,3.33
2023-03-17T01:32:23.139Z,3.85
2023-03-17T01:34:51.157Z,3.00
2023-03-17T01:37:18.282Z,3.53
2023-03-17T01:39:45.538Z,3.85
2023-03-17T01:42:13.729Z,3.75
2023-03-17T01:44:57.973Z,3.63
2023-03-17T01:47:26.491Z,3.40
2023-03-17T01:49:53.645Z,3.20
2023-03-17T01:52:22.196Z,3.17
2023-03-17T01:54:57.326Z,3.47
2023-03-17T01:57:30.351Z,3.10
2023-03-17T02:00:06.012Z,3.33
2023-03-17T02:02:35.297Z,2.85
2023-03-17T02:05:03.755Z,3.47
2023-03-17T02:07:31.357Z,2.90
2023-03-17T02:09:58.874Z,3.03
2023-03-17T02:12:26.649Z,2.85
2023-03-17T02:14:54.027Z,3.47
2023-03-17T02:17:22.108Z,2.80
2023-03-17T02:19:49.622Z,3.08
2023-03-17T02:22:17.974Z,2.97
2023-03-17T02:24:48.303Z,3.28
2023-03-17T02:27:21.249Z,3.00
2023-03-17T02:29:48.414Z,3.38
2023-03-17T02:32:17.722Z,3.83
2023-03-17T02:34:46.316Z,3.80
2023-03-17T02:37:13.962Z,3.08
2023-03-17T02:39:41.503Z,3.38
2023-03-17T02:42:09.280Z,3.15
2023-03-17T02:44:36.630Z,3.70
2023-03-17T02:47:03.821Z,2.95
2023-03-17T02:49:31.640Z,3.15
2023-03-17T02:51:58.968Z,3.28
2023-03-17T02:54:26.580Z,3.40
2023-03-17T02:56:53.808Z,3.58
2023-03-17T02:59:21.239Z,3.10
2023-03-17T03:01:49.327Z,2.97
2023-03-17T03:04:16.657Z,3.55
2023-03-17T03:06:44.744Z,3.05
2023-03-17T03:09:12.169Z,3.22
2023-03-17T03:11:39.785Z,4.53
2023-03-17T03:14:07.068Z,3.83
2023-03-17T03:16:34.428Z,3.45
2023-03-17T03:19:01.911Z,4.38
2023-03-17T03:21:29.256Z,3.72
2023-03-17T03:23:56.610Z,3.50
2023-03-17T03:26:23.789Z,3.65
2023-03-17T03:28:51.221Z,3.70
2023-03-17T03:31:18.405Z,3.53
2023-03-17T03:33:45.882Z,3.47
2023-03-17T03:36:13.476Z,3.67
2023-03-17T03:38:41.660Z,3.65
2023-03-17T03:41:09.435Z,4.03
2023-03-17T03:43:36.919Z,4.50
2023-03-17T03:46:04.650Z,4.40
2023-03-17T03:48:31.889Z,4.40
2023-03-17T03:50:59.914Z,3.60
2023-03-17T03:53:27.822Z,3.85
2023-03-17T03:55:55.959Z,4.07
2023-03-17T03:58:23.567Z,4.10
2023-03-17T04:00:51.177Z,4.43
2023-03-17T04:03:18.385Z,3.88
2023-03-17T04:05:45.599Z,3.83
2023-03-17T04:08:12.819Z,4.28
2023-03-17T04:10:40.109Z,3.80
2023-03-17T04:13:08.438Z,3.95
2023-03-17T04:15:35.844Z,3.55
2023-03-17T04:18:03.085Z,3.53
2023-03-17T04:20:30.653Z,3.67
2023-03-17T04:22:57.966Z,4.30
2023-03-17T04:25:25.145Z,4.55
2023-03-17T04:27:52.285Z,4.40
2023-03-17T04:30:19.814Z,4.18
2023-03-17T04:32:47.603Z,4.32
2023-03-17T04:35:17.608Z,4.85
2023-03-17T04:37:45.014Z,5.18
2023-03-17T04:40:12.973Z,4.28
2023-03-17T04:42:40.643Z,4.32
2023-03-17T04:45:09.577Z,4.72
2023-03-17T04:47:37.303Z,5.30
2023-03-17T04:50:05.367Z,5.80
2023-03-17T04:52:32.682Z,5.60
2023-03-17T04:54:59.838Z,4.60
2023-03-17T04:57:27.042Z,5.03
2023-03-17T04:59:54.266Z,5.32
2023-03-17T05:02:21.441Z,3.85
2023-03-17T05:04:48.727Z,4.40
2023-03-17T05:07:16.151Z,4.30
2023-03-17T05:09:43.251Z,5.05
2023-03-17T05:12:13.751Z,4.45
2023-03-17T05:14:41.127Z,5.38
2023-03-17T05:17:08.611Z,4.22
2023-03-17T05:19:35.969Z,4.38
2023-03-17T05:22:03.100Z,4.43
2023-03-17T05:24:30.276Z,5.25
2023-03-17T05:26:57.730Z,5.43
2023-03-17T05:29:24.976Z,5.72
2023-03-17T05:31:52.156Z,5.57
2023-03-17T05:34:19.578Z,6.18
2023-03-17T05:36:47.650Z,8.00
2023-03-17T05:39:17.406Z,8.70
2023-03-17T05:41:44.551Z,8.05
2023-03-17T05:44:11.657Z,12.95
2023-03-17T05:46:38.826Z,10.00
2023-03-17T05:49:06.071Z,9.60
2023-03-17T05:51:34.340Z,10.82
2023-03-17T05:54:02.943Z,8.90
2023-03-17T05:56:33.721Z,8.30
2023-03-17T05:59:01.796Z,7.72
2023-03-17T06:01:29.216Z,7.30
2023-03-17T06:03:56.520Z,6.95
2023-03-17T06:06:24.648Z,6.70
2023-03-17T06:08:52.359Z,6.60
2023-03-17T06:11:21.452Z,6.78
2023-03-17T06:13:48.674Z,6.95
2023-03-17T06:16:16.030Z,5.00
2023-03-17T06:18:43.202Z,5.47
2023-03-17T06:21:10.439Z,5.75
2023-03-17T06:23:37.587Z,6.40
2023-03-17T06:26:04.754Z,6.55
2023-03-17T06:28:31.979Z,5.20
2023-03-17T06:30:59.460Z,4.45
2023-03-17T06:33:27.139Z,4.30
2023-03-17T06:35:54.381Z,4.20
2023-03-17T06:38:21.997Z,4.05
2023-03-17T06:40:49.183Z,4.07
2023-03-17T06:43:18.519Z,4.60
2023-03-17T06:45:46.319Z,4.60
2023-03-17T06:48:13.459Z,4.20
2023-03-17T06:50:40.781Z,4.20
2023-03-17T06:53:08.214Z,4.55
2023-03-17T06:55:35.721Z,4.38
2023-03-17T06:58:03.241Z,4.50
2023-03-17T07:00:30.711Z,3.90
2023-03-17T07:02:57.882Z,4.00
2023-03-17T07:05:25.172Z,4.03
2023-03-17T07:07:52.268Z,4.63
2023-03-17T07:10:19.844Z,4.70
2023-03-17T07:12:47.054Z,4.47
2023-03-17T07:15:14.270Z,4.70
2023-03-17T07:17:41.889Z,3.50
2023-03-17T07:20:09.759Z,3.92
2023-03-17T07:22:36.960Z,4.00
2023-03-17T07:25:04.304Z,4.20
2023-03-17T07:27:31.511Z,3.78
2023-03-17T07:30:02.219Z,3.50
2023-03-17T07:32:29.629Z,3.30
2023-03-17T07:34:57.153Z,3.45
2023-03-17T07:37:24.873Z,3.40
2023-03-17T07:39:53.551Z,3.78
2023-03-17T07:42:20.643Z,3.40
2023-03-17T07:44:47.965Z,3.50
2023-03-17T07:47:15.751Z,3.20
2023-03-17T07:49:43.800Z,3.33
2023-03-17T07:52:11.829Z,3.10
2023-03-17T07:54:42.284Z,3.47
2023-03-17T07:57:09.880Z,3.05
2023-03-17T07:59:38.278Z,2.97
2023-03-17T08:02:05.646Z,3.05
2023-03-17T08:04:32.808Z,2.88
2023-03-17T08:06:59.960Z,3.17
2023-03-17T08:09:27.118Z,2.85
2023-03-17T08:11:54.353Z,2.60
2023-03-17T08:14:21.931Z,2.92
2023-03-17T08:16:49.253Z,3.08
2023-03-17T08:19:16.601Z,3.55
2023-03-17T08:21:43.794Z,2.80
2023-03-17T08:24:11.100Z,3.03
2023-03-17T08:26:38.335Z,2.75
2023-03-17T08:29:05.533Z,3.20
2023-03-17T08:31:34.012Z,3.40
2023-03-17T08:34:02.680Z,3.20
2023-03-17T08:36:30.273Z,3.08
2023-03-17T08:38:57.682Z,3.20
2023-03-17T08:41:26.888Z,3.28
2023-03-17T08:43:54.338Z,3.17
2023-03-17T08:46:23.728Z,3.30
2023-03-17T08:48:52.372Z,3.40
2023-03-17T08:51:23.655Z,2.85
2023-03-17T08:53:51.829Z,3.22
2023-03-17T08:56:19.016Z,3.10
2023-03-17T08:58:46.837Z,3.35
2023-03-17T09:01:14.510Z,3.15
2023-03-17T09:03:41.959Z,2.85
2023-03-17T09:06:12.501Z,3.08
2023-03-17T09:08:44.450Z,3.00
2023-03-17T09:11:14.014Z,3.10
2023-03-17T09:13:41.533Z,2.92
2023-03-17T09:16:22.682Z,2.95
2023-03-17T09:18:49.999Z,3.13
2023-03-17T09:21:17.434Z,3.28
2023-03-17T09:23:44.660Z,3.08
2023-03-17T09:26:12.637Z,3.42
2023-03-17T09:28:39.913Z,3.10
2023-03-17T09:31:11.589Z,2.90
2023-03-17T09:33:39.766Z,2.92
2023-03-17T09:36:07.515Z,3.20
2023-03-17T09:38:35.037Z,3.03
2023-03-17T09:41:02.128Z,2.85
2023-03-17T09:43:52.615Z,3.40
2023-03-17T09:46:28.945Z,3.42
2023-03-17T09:49:00.921Z,3.10
2023-03-17T09:51:29.239Z,3.72
2023-03-17T09:54:01.210Z,3.38
2023-03-17T09:56:32.032Z,2.92
2023-03-17T09:59:16.181Z,3.38
2023-03-17T10:01:44.029Z,3.53
2023-03-17T10:04:12.096Z,3.10
2023-03-17T10:06:50.127Z,2.97
2023-03-17T10:09:46.836Z,3.08
2023-03-17T10:12:26.803Z,2.97
2023-03-17T10:15:11.441Z,2.78
2023-03-17T10:17:42.684Z,2.72
2023-03-17T10:20:25.481Z,3.05
2023-03-17T10:22:57.928Z,2.60
2023-03-17T10:25:25.680Z,2.85
2023-03-17T10:28:00.562Z,2.47
2023-03-17T10:30:28.033Z,2.53
2023-03-17T10:32:57.967Z,2.80
2023-03-17T10:35:25.557Z,3.08
2023-03-17T10:38:11.837Z,3.20
2023-03-17T10:40:41.851Z,2.63
2023-03-17T10:43:16.759Z,2.70
2023-03-17T10:45:48.587Z,2.63
2023-03-17T10:48:20.062Z,2.13
2023-03-17T10:50:49.540Z,2.88
2023-03-17T10:53:30.614Z,2.30
2023-03-17T10:55:59.640Z,2.50
2023-03-17T10:58:29.778Z,2.30
2023-03-17T11:01:03.516Z,2.70
2023-03-17T11:03:34.212Z,2.10
2023-03-17T11:06:06.353Z,2.67
2023-03-17T11:08:35.945Z,2.25
2023-03-17T11:11:06.389Z,2.70
2023-03-17T11:13:33.705Z,2.10
2023-03-17T11:16:19.693Z,2.70
2023-03-17T11:18:48.510Z,2.53
2023-03-17T11:21:30.378Z,2.78
2023-03-17T11:24:06.894Z,2.73
2023-03-17T11:26:57.457Z,2.20
2023-03-17T11:29:27.657Z,2.50
2023-03-17T11:32:00.773Z,2.65
2023-03-17T11:34:43.462Z,3.10
2023-03-17T11:37:27.239Z,2.63
2023-03-17T11:40:07.855Z,2.00
2023-03-17T11:42:43.964Z,2.55
2023-03-17T11:45:16.783Z,2.50
2023-03-17T11:47:47.071Z,2.50
2023-03-17T11:50:32.907Z,2.30
2023-03-17T11:53:19.239Z,2.10
2023-03-17T11:55:48.865Z,2.53
2023-03-17T11:58:37.470Z,2.38
2023-03-17T12:01:09.046Z,2.05
2023-03-17T12:03:48.726Z,2.70
2023-03-17T12:06:26.647Z,2.28
2023-03-17T12:08:57.613Z,2.40
2023-03-17T12:11:28.280Z,2.53
2023-03-17T12:14:12.781Z,2.15
2023-03-17T12:16:41.967Z,2.95
2023-03-17T12:19:20.620Z,2.10
2023-03-17T12:21:54.199Z,2.40
2023-03-17T12:24:41.557Z,2.75
2023-03-17T12:27:16.948Z,2.85
2023-03-17T12:29:47.305Z,2.17
2023-03-17T12:32:19.812Z,2.20
2023-03-17T12:34:46.947Z,2.38
2023-03-17T12:37:15.713Z,2.35
2023-03-17T12:39:58.722Z,2.40
2023-03-17T12:42:32.084Z,2.38
2023-03-17T12:45:20.048Z,2.50
2023-03-17T12:48:05.264Z,2.10
2023-03-17T12:50:39.498Z,2.20
2023-03-17T12:53:26.675Z,2.88
2023-03-17T12:55:55.703Z,2.63
2023-03-17T12:58:29.016Z,2.33
2023-03-17T13:01:01.072Z,1.88
2023-03-17T13:03:33.893Z,1.98
2023-03-17T13:06:07.410Z,2.53
2023-03-17T13:08:36.455Z,2.42
2023-03-17T13:11:19.092Z,2.40
2023-03-17T13:16:28.669Z,2.03
2023-03-17T13:21:24.970Z,2.13
2023-03-17T13:24:00.157Z,2.55
2023-03-17T13:26:46.250Z,2.00
2023-03-17T13:29:32.707Z,2.05
2023-03-17T13:32:18.815Z,2.25
2023-03-17T13:35:05.585Z,1.98
2023-03-17T13:37:36.022Z,2.35
2023-03-17T13:40:22.164Z,2.22
2023-03-17T13:43:04.646Z,2.13
2023-03-17T13:48:19.943Z,1.90
2023-03-17T13:50:47.300Z,2.55
2023-03-17T13:53:15.699Z,2.25
2023-03-17T13:55:43.597Z,1.90
2023-03-17T13:58:12.205Z,2.00
2023-03-17T14:00:41.419Z,1.85
2023-03-17T14:03:20.276Z,2.20
2023-03-17T14:05:48.679Z,2.08
2023-03-17T14:08:24.013Z,1.88
2023-03-17T14:10:59.844Z,1.92
2023-03-17T14:13:27.880Z,2.13
2023-03-17T14:15:56.867Z,1.92
2023-03-17T14:18:33.065Z,2.50
2023-03-17T14:21:01.987Z,2.05
2023-03-17T14:23:31.169Z,2.13
2023-03-17T14:25:59.704Z,2.20
2023-03-17T14:28:29.181Z,2.00
2023-03-17T14:31:04.610Z,2.50
2023-03-17T14:33:34.598Z,2.63
2023-03-17T14:36:02.973Z,2.22
2023-03-17T14:38:34.581Z,2.45
2023-03-17T14:41:07.777Z,2.30
2023-03-17T14:43:36.113Z,2.50
2023-03-17T14:46:04.459Z,2.20
2023-03-17T14:48:32.959Z,2.03
2023-03-17T14:51:10.995Z,2.13
2023-03-17T14:53:43.161Z,2.78
2023-03-17T14:56:10.603Z,2.50
2023-03-17T14:58:41.097Z,2.50
2023-03-17T15:01:18.358Z,3.88
2023-03-17T15:03:56.474Z,2.95
2023-03-17T15:06:23.812Z,3.72
2023-03-17T15:08:52.515Z,3.50
2023-03-17T15:11:25.772Z,2.67
2023-03-17T15:13:57.379Z,2.72
2023-03-17T15:16:28.433Z,2.83
2023-03-17T15:19:03.621Z,3.00
2023-03-17T15:21:35.929Z,2.55
2023-03-17T15:24:21.785Z,3.63
2023-03-17T15:26:49.155Z,7.20
2023-03-17T15:29:16.410Z,10.10
2023-03-17T15:31:43.591Z,5.10
2023-03-17T15:34:14.947Z,2.67
2023-03-17T15:36:44.130Z,3.08
2023-03-17T15:39:11.361Z,2.80
2023-03-17T15:41:38.503Z,3.03
2023-03-17T15:44:06.016Z,3.03
2023-03-17T15:46:33.733Z,2.67
2023-03-17T15:49:01.127Z,3.00
2023-03-17T15:51:28.323Z,2.97
2023-03-17T15:53:55.678Z,3.22
2023-03-17T15:56:22.935Z,2.42
2023-03-17T15:58:52.244Z,2.30
2023-03-17T16:01:19.877Z,2.50
2023-03-17T16:03:47.758Z,2.30
2023-03-17T16:06:16.813Z,2.30
2023-03-17T16:08:44.052Z,2.42
2023-03-17T16:11:19.225Z,2.28
2023-03-17T16:13:47.477Z,2.10
2023-03-17T16:16:45.825Z,2.00
2023-03-17T16:19:20.058Z,2.30
2023-03-17T16:21:47.842Z,2.70
2023-03-17T16:24:22.753Z,3.50
2023-03-17T16:26:50.882Z,2.10
2023-03-17T16:29:18.951Z,4.88
2023-03-17T16:31:48.892Z,6.07
2023-03-17T16:34:17.496Z,6.70
2023-03-17T16:36:44.632Z,3.88
2023-03-17T16:39:17.023Z,2.40
2023-03-17T16:41:45.304Z,2.45
2023-03-17T16:44:12.749Z,2.50
2023-03-17T16:46:44.700Z,2.70
2023-03-17T16:49:19.624Z,2.47
2023-03-17T16:51:48.758Z,2.72
2023-03-17T16:54:16.726Z,3.03
2023-03-17T16:56:43.927Z,2.50
2023-03-17T16:59:19.870Z,2.38
2023-03-17T17:01:47.143Z,2.45
2023-03-17T17:04:14.396Z,2.70
2023-03-17T17:06:41.530Z,2.60
2023-03-17T17:09:09.220Z,2.63
2023-03-17T17:11:36.334Z,2.40
2023-03-17T17:14:03.708Z,3.03
2023-03-17T17:16:32.631Z,2.20
2023-03-17T17:19:00.222Z,2.47
2023-03-17T17:21:27.772Z,2.92
2023-03-17T17:23:55.306Z,2.80
2023-03-17T17:26:22.625Z,2.72
2023-03-17T17:28:50.040Z,2.70
2023-03-17T17:31:17.338Z,2.55
2023-03-17T17:33:45.109Z,2.60
2023-03-17T17:36:14.312Z,2.60
2023-03-17T17:38:41.514Z,2.42
2023-03-17T17:41:10.684Z,2.38
2023-03-17T17:43:37.994Z,2.80
2023-03-17T17:46:10.413Z,3.05
2023-03-17T17:48:37.594Z,3.65
2023-03-17T17:51:04.802Z,3.15
2023-03-17T17:53:32.047Z,2.70
2023-03-17T17:55:59.240Z,4.22
2023-03-17T17:58:26.777Z,3.33
2023-03-17T18:00:56.974Z,2.97
2023-03-17T18:03:25.339Z,2.33
2023-03-17T18:05:56.351Z,2.42
2023-03-17T18:08:24.140Z,2.28
2023-03-17T18:10:52.230Z,2.30
2023-03-17T18:13:19.604Z,2.65
2023-03-17T18:15:46.907Z,2.97
2023-03-17T18:18:14.058Z,2.70
2023-03-17T18:20:41.627Z,2.33
2023-03-17T18:23:09.215Z,2.67
2023-03-17T18:25:37.299Z,2.75
2023-03-17T18:28:04.905Z,4.18
2023-03-17T18:30:34.814Z,6.18
2023-03-17T18:33:10.544Z,5.85
2023-03-17T18:35:38.165Z,3.67
2023-03-17T18:38:05.623Z,2.92
2023-03-17T18:40:33.609Z,3.10
2023-03-17T18:43:01.125Z,3.35
2023-03-17T18:45:28.940Z,3.90
2023-03-17T18:47:56.093Z,3.90
2023-03-17T18:50:23.416Z,3.33
2023-03-17T18:52:50.680Z,2.78
2023-03-17T18:55:17.982Z,3.00
2023-03-17T18:57:46.417Z,3.08
2023-03-17T19:00:14.882Z,3.58
2023-03-17T19:02:42.056Z,3.08
2023-03-17T19:05:09.494Z,3.22
2023-03-17T19:07:39.729Z,2.55
2023-03-17T19:10:07.650Z,3.08
2023-03-17T19:12:35.036Z,2.70
2023-03-17T19:15:02.322Z,2.97
2023-03-17T19:17:29.550Z,2.55
2023-03-17T19:19:57.125Z,2.58
2023-03-17T19:22:24.328Z,3.10
2023-03-17T19:24:51.814Z,4.00
2023-03-17T19:27:18.967Z,3.25
2023-03-17T19:29:46.381Z,2.90
2023-03-17T19:32:13.919Z,2.92
2023-03-17T19:34:41.429Z,2.95
2023-03-17T19:37:08.649Z,3.05
2023-03-17T19:39:37.680Z,2.53
2023-03-17T19:42:04.929Z,3.10
2023-03-17T19:44:32.141Z,3.03
2023-03-17T19:47:01.646Z,3.15
2023-03-17T19:49:28.908Z,3.20
2023-03-17T19:51:56.482Z,3.10
2023-03-17T19:54:23.726Z,3.20
2023-03-17T19:56:51.587Z,3.00
2023-03-17T19:59:19.854Z,3.10
2023-03-17T20:01:48.769Z,3.10
2023-03-17T20:04:21.189Z,3.25
2023-03-17T20:06:48.690Z,3.05
2023-03-17T20:09:16.135Z,3.28
2023-03-17T20:11:43.417Z,2.90
2023-03-17T20:14:10.850Z,2.63
2023-03-17T20:16:39.333Z,2.60
2023-03-17T20:19:08.500Z,3.13
2023-03-17T20:21:35.866Z,4.25
2023-03-17T20:24:03.450Z,2.95
2023-03-17T20:26:30.652Z,2.60
2023-03-17T20:28:58.265Z,3.00
2023-03-17T20:31:25.635Z,2.78
2023-03-17T20:33:52.832Z,2.53
2023-03-17T20:36:19.997Z,3.13
2023-03-17T20:38:47.288Z,2.97
2023-03-17T20:41:16.048Z,2.70
2023-03-17T20:43:43.444Z,2.97
2023-03-17T20:46:14.870Z,2.85
2023-03-17T20:48:43.336Z,3.25
2023-03-17T20:51:16.236Z,3.10
2023-03-17T20:53:47.771Z,2.95
2023-03-17T20:56:19.907Z,2.90
2023-03-17T20:58:48.614Z,3.20
2023-03-17T21:01:18.262Z,3.20
2023-03-17T21:03:47.319Z,2.90
2023-03-17T21:06:14.826Z,3.17
2023-03-17T21:08:42.498Z,2.90
2023-03-17T21:11:10.002Z,2.72
2023-03-17T21:13:37.308Z,2.70
2023-03-17T21:16:04.619Z,2.90
2023-03-17T21:18:32.099Z,2.97
2023-03-17T21:20:59.795Z,2.65
2023-03-17T21:23:27.218Z,2.80
2023-03-17T21:25:56.078Z,3.00
2023-03-17T21:28:23.538Z,3.13
2023-03-17T21:30:50.721Z,3.60
2023-03-17T21:33:17.963Z,3.00
2023-03-17T21:35:45.155Z,2.88
2023-03-17T21:38:12.476Z,3.70
2023-03-17T21:40:39.628Z,3.28
2023-03-17T21:43:07.108Z,3.20
2023-03-17T21:45:35.577Z,3.00
2023-03-17T21:48:03.039Z,2.90
2023-03-17T21:50:31.613Z,3.35
2023-03-17T21:52:59.307Z,3.20
2023-03-17T21:55:27.174Z,3.70
2023-03-17T21:57:54.316Z,3.20
2023-03-17T22:00:23.565Z,3.53
2023-03-17T22:02:52.781Z,3.17
2023-03-17T22:05:20.499Z,3.25
2023-03-17T22:07:48.408Z,2.90
2023-03-17T22:10:15.602Z,3.30
2023-03-17T22:12:42.744Z,3.55
2023-03-17T22:15:10.358Z,3.10
2023-03-17T22:17:37.996Z,2.75
2023-03-17T22:20:07.154Z,3.10
2023-03-17T22:22:34.525Z,3.25
2023-03-17T22:25:05.009Z,3.40
2023-03-17T22:27:32.512Z,3.17
2023-03-17T22:29:59.690Z,3.15
2023-03-17T22:32:26.943Z,3.72
2023-03-17T22:34:54.128Z,2.78
2023-03-17T22:37:21.314Z,3.03
2023-03-17T22:39:48.483Z,2.88
2023-03-17T22:42:16.484Z,2.90
2023-03-17T22:44:43.750Z,2.78
2023-03-17T22:47:11.627Z,2.92
2023-03-17T22:49:38.793Z,3.13
2023-03-17T22:52:06.033Z,3.05
2023-03-17T22:54:33.188Z,2.60
2023-03-17T22:57:00.606Z,2.55
2023-03-17T22:59:27.712Z,2.80
2023-03-17T23:01:54.929Z,2.58
2023-03-17T23:04:22.119Z,2.40
2023-03-17T23:06:49.439Z,2.65
2023-03-17T23:09:16.647Z,2.22
2023-03-17T23:11:43.947Z,2.97
2023-03-17T23:14:11.497Z,3.28
2023-03-17T23:16:38.749Z,2.22
2023-03-17T23:19:06.267Z,3.00
2023-03-17T23:21:36.394Z,2.63
2023-03-17T23:24:04.687Z,2.83
2023-03-17T23:26:32.244Z,2.60
2023-03-17T23:28:59.403Z,3.15
2023-03-17T23:31:27.420Z,2.85
2023-03-17T23:33:54.549Z,2.53
2023-03-17T23:36:21.832Z,3.40
2023-03-17T23:38:50.296Z,2.80
2023-03-17T23:41:17.666Z,2.72
2023-03-17T23:43:46.591Z,3.30
2023-03-17T23:46:14.692Z,2.90
2023-03-17T23:48:42.963Z,2.28
2023-03-17T23:51:12.086Z,2.53
2023-03-17T23:53:40.071Z,3.13
2023-03-17T23:56:07.953Z,3.13
2023-03-17T23:58:35.133Z,2.70
